Time;durP1;ratioP1;P1;durP2;ratioP2;P2;SDS_P1;SDS_P2;PMS_P1;PMS_P2;Temp;Humidity;BMP_temperature;BMP_pressure;BME280_temperature;BME280_humidity;BME280_pressure;Samples;Min_cycle;Max_cycle;Signal;HPM_P1;HPM_P2
2023/03/07 00:01:28;;;;;;;19.27;8.48;;;2.90;99.90;;;;;;4987231;28;20042;-80
2023/03/07 00:03:54;;;;;;;15.65;7.28;;;2.80;99.90;;;;;;4997685;28;20100;-81
2023/03/07 00:06:20;;;;;;;19.50;8.68;;;2.80;99.90;;;;;;4970501;28;20037;-81
2023/03/07 00:08:57;;;;;;;18.83;8.10;;;2.90;99.90;;;;;;5000062;28;20045;-80
2023/03/07 00:11:24;;;;;;;17.75;8.68;;;2.90;99.90;;;;;;4989286;28;20614;-80
2023/03/07 00:13:50;;;;;;;15.52;7.55;;;2.90;99.90;;;;;;4988692;28;20194;-80
2023/03/07 00:16:19;;;;;;;17.38;7.90;;;2.90;99.90;;;;;;4997070;28;20682;-80
2023/03/07 00:18:44;;;;;;;18.92;8.32;;;3.00;99.90;;;;;;4982112;28;20463;-80
2023/03/07 00:21:17;;;;;;;15.88;6.85;;;2.90;99.90;;;;;;5004336;28;20061;-80
2023/03/07 00:23:44;;;;;;;12.07;5.18;;;2.90;99.90;;;;;;5002050;28;20100;-81
2023/03/07 00:26:13;;;;;;;12.73;6.40;;;2.90;99.90;;;;;;5001867;28;20046;-80
2023/03/07 00:28:38;;;;;;;9.88;5.97;;;3.00;99.90;;;;;;4984166;28;20093;-80
2023/03/07 00:31:07;;;;;;;9.55;4.85;;;2.90;99.90;;;;;;5004349;28;20033;-80
2023/03/07 00:33:33;;;;;;;7.80;4.13;;;2.90;99.90;;;;;;5001210;28;20103;-81
2023/03/07 00:36:09;;;;;;;8.60;4.53;;;3.50;99.90;;;;;;4986807;28;20113;-81
2023/03/07 00:38:35;;;;;;;6.05;3.78;;;2.90;99.90;;;;;;4997534;28;20331;-81
2023/03/07 00:41:08;;;;;;;6.13;3.97;;;2.90;99.90;;;;;;4986884;28;20038;-81
2023/03/07 00:43:34;;;;;;;6.32;3.53;;;2.90;99.90;;;;;;5000063;28;20117;-81
2023/03/07 00:46:01;;;;;;;7.25;3.42;;;3.30;99.90;;;;;;4982855;28;20053;-81
2023/03/07 00:48:27;;;;;;;4.53;2.95;;;2.90;99.90;;;;;;4994906;28;20038;-81
2023/03/07 00:50:54;;;;;;;6.20;3.17;;;2.90;99.90;;;;;;4988186;28;20137;-82
2023/03/07 00:53:20;;;;;;;4.45;2.60;;;2.90;99.90;;;;;;4981456;28;20038;-81
2023/03/07 00:56:22;;;;;;;6.72;3.17;;;2.90;99.90;;;;;;4964711;28;20050;-82
2023/03/07 00:58:49;;;;;;;6.28;3.05;;;2.90;99.90;;;;;;4995875;28;20038;-81
2023/03/07 01:01:18;;;;;;;4.20;2.92;;;2.90;99.90;;;;;;5001480;28;20511;-82
2023/03/07 01:03:44;;;;;;;5.05;3.40;;;2.90;99.90;;;;;;5010902;28;20072;-82
2023/03/07 01:06:14;;;;;;;6.47;3.40;;;3.00;99.90;;;;;;5001048;28;20038;-82
2023/03/07 01:08:40;;;;;;;6.78;3.20;;;2.90;99.90;;;;;;5001160;28;20054;-82
2023/03/07 01:11:06;;;;;;;5.47;3.00;;;2.90;99.90;;;;;;4998224;28;20038;-82
2023/03/07 01:13:33;;;;;;;5.32;2.10;;;2.90;99.90;;;;;;4986035;28;20052;-82
2023/03/07 01:16:14;;;;;;;4.55;1.88;;;3.20;99.90;;;;;;4995220;28;20048;-82
2023/03/07 01:18:41;;;;;;;4.65;2.15;;;2.90;99.90;;;;;;4997990;28;20087;-82
2023/03/07 01:21:37;;;;;;;2.53;1.65;;;2.90;99.90;;;;;;4970335;28;20072;-82
2023/03/07 01:24:04;;;;;;;4.20;1.83;;;3.40;99.90;;;;;;4983047;28;20042;-82
2023/03/07 01:26:31;;;;;;;2.80;1.83;;;2.90;99.90;;;;;;4999640;28;20495;-82
2023/03/07 01:29:00;;;;;;;4.18;2.00;;;2.90;99.90;;;;;;5000599;28;21292;-82
2023/03/07 01:31:26;;;;;;;2.63;1.50;;;2.90;99.90;;;;;;4996834;28;20045;-82
2023/03/07 01:33:52;;;;;;;2.58;1.73;;;2.90;99.90;;;;;;4977527;28;20049;-82
2023/03/07 01:36:24;;;;;;;8.32;2.67;;;2.90;99.90;;;;;;4984745;28;20534;-82
2023/03/07 01:38:54;;;;;;;3.10;1.80;;;2.90;99.90;;;;;;4977950;28;20034;-82
2023/03/07 01:41:20;;;;;;;3.65;1.67;;;2.90;99.90;;;;;;5001682;28;20578;-82
2023/03/07 01:43:46;;;;;;;4.85;2.95;;;3.00;99.90;;;;;;4996585;28;20129;-82
2023/03/07 01:46:18;;;;;;;3.53;1.80;;;2.90;99.90;;;;;;5001369;28;20113;-82
2023/03/07 01:49:10;;;;;;;3.00;2.58;;;3.00;99.90;;;;;;4983669;28;20046;-82
2023/03/07 01:51:38;;;;;;;3.70;1.67;;;2.90;99.90;;;;;;4984376;28;20077;-82
2023/03/07 01:54:06;;;;;;;2.35;1.63;;;2.90;99.90;;;;;;4998921;28;20049;-82
2023/03/07 01:56:34;;;;;;;2.47;1.73;;;2.90;99.90;;;;;;4967501;28;20073;-82
2023/03/07 01:59:00;;;;;;;7.25;2.10;;;2.90;99.90;;;;;;4973872;28;21003;-82
2023/03/07 02:01:27;;;;;;;5.10;2.08;;;3.20;99.90;;;;;;4988054;28;20045;-82
2023/03/07 02:04:02;;;;;;;6.13;2.58;;;2.90;99.90;;;;;;4973680;28;20471;-82
2023/03/07 02:06:29;;;;;;;6.30;2.30;;;3.00;99.90;;;;;;4983034;28;20050;-82
2023/03/07 02:08:57;;;;;;;4.88;2.00;;;3.10;99.90;;;;;;4990072;28;20042;-82
2023/03/07 02:11:23;;;;;;;4.60;2.03;;;2.70;99.90;;;;;;5000163;28;20089;-83
2023/03/07 02:13:49;;;;;;;4.82;1.55;;;2.70;99.90;;;;;;5002632;28;20053;-82
2023/03/07 02:16:15;;;;;;;2.45;1.90;;;2.70;99.90;;;;;;5003248;28;20038;-82
2023/03/07 02:18:46;;;;;;;3.60;1.80;;;2.60;99.90;;;;;;4990747;28;20046;-82
2023/03/07 02:21:15;;;;;;;13.40;2.97;;;2.60;99.90;;;;;;4990578;28;20113;-82
2023/03/07 02:23:44;;;;;;;4.30;1.75;;;2.50;99.90;;;;;;4985226;28;20142;-82
2023/03/07 02:26:19;;;;;;;3.58;1.70;;;2.90;99.90;;;;;;5016459;28;20407;-83
2023/03/07 02:28:47;;;;;;;2.55;1.70;;;2.50;99.90;;;;;;4999426;28;20050;-83
2023/03/07 02:31:13;;;;;;;3.35;1.67;;;2.40;99.90;;;;;;5003065;28;20493;-82
2023/03/07 02:33:38;;;;;;;6.32;1.75;;;2.40;99.90;;;;;;4986388;28;20085;-82
2023/03/07 02:36:10;;;;;;;3.20;1.60;;;2.40;99.90;;;;;;4988127;28;20066;-82
2023/03/07 02:38:38;;;;;;;7.80;2.22;;;2.30;99.90;;;;;;5018599;28;20037;-82
2023/03/07 02:41:06;;;;;;;5.32;1.98;;;2.30;99.90;;;;;;5003156;28;20030;-82
2023/03/07 02:43:31;;;;;;;5.90;1.92;;;2.80;99.90;;;;;;5007261;28;20045;-82
2023/03/07 02:45:57;;;;;;;5.00;1.73;;;2.30;99.90;;;;;;4993956;28;20038;-82
2023/03/07 02:48:23;;;;;;;2.17;1.52;;;2.30;99.90;;;;;;4977453;28;21017;-82
2023/03/07 02:50:49;;;;;;;5.25;2.00;;;2.30;99.90;;;;;;4992170;28;20673;-82
2023/03/07 02:53:14;;;;;;;5.85;2.40;;;2.30;99.90;;;;;;4996227;28;20034;-83
2023/03/07 02:55:41;;;;;;;4.45;2.53;;;2.40;99.90;;;;;;5031573;28;20077;-82
2023/03/07 02:58:07;;;;;;;7.50;2.33;;;2.30;99.90;;;;;;4978919;28;20042;-82
2023/03/07 03:00:33;;;;;;;5.15;2.78;;;2.20;99.90;;;;;;5009870;28;20037;-82
2023/03/07 03:02:59;;;;;;;5.80;2.65;;;2.30;99.90;;;;;;5009691;28;20092;-82
2023/03/07 03:05:25;;;;;;;7.63;2.10;;;2.20;99.90;;;;;;5007006;28;20117;-82
2023/03/07 03:07:50;;;;;;;5.53;2.65;;;2.10;99.90;;;;;;4988969;28;20038;-83
2023/03/07 03:10:16;;;;;;;10.90;2.30;;;2.60;99.90;;;;;;5008328;28;20041;-82
2023/03/07 03:12:42;;;;;;;4.22;2.30;;;2.10;99.90;;;;;;4962706;28;20321;-82
2023/03/07 03:15:09;;;;;;;3.30;2.40;;;2.10;99.90;;;;;;4996719;28;20034;-82
2023/03/07 03:17:35;;;;;;;7.88;2.28;;;2.10;99.90;;;;;;5005392;28;20057;-82
2023/03/07 03:20:02;;;;;;;5.13;2.40;;;2.10;99.90;;;;;;4992907;28;20042;-82
2023/03/07 03:22:28;;;;;;;4.80;2.05;;;2.60;99.90;;;;;;4989427;28;20095;-83
2023/03/07 03:24:53;;;;;;;5.45;1.95;;;2.10;99.90;;;;;;5024529;28;20045;-82
2023/03/07 03:27:19;;;;;;;7.38;2.50;;;2.10;99.90;;;;;;4969503;28;20070;-82
2023/03/07 03:29:45;;;;;;;3.10;2.38;;;2.10;99.90;;;;;;4991685;28;20041;-82
2023/03/07 03:32:11;;;;;;;13.02;3.28;;;2.20;99.90;;;;;;4974982;28;20074;-82
2023/03/07 03:34:36;;;;;;;8.88;2.03;;;2.20;99.90;;;;;;5028580;28;20774;-82
2023/03/07 03:37:02;;;;;;;7.10;1.70;;;2.10;99.90;;;;;;4992071;28;20069;-82
2023/03/07 03:39:28;;;;;;;10.02;2.13;;;2.10;99.90;;;;;;4992367;28;20395;-82
2023/03/07 03:41:53;;;;;;;6.25;1.83;;;2.10;99.90;;;;;;4991760;28;20037;-82
2023/03/07 03:44:19;;;;;;;6.57;1.67;;;2.10;99.90;;;;;;4991728;28;20438;-82
2023/03/07 03:46:47;;;;;;;5.78;1.80;;;2.10;99.90;;;;;;5007893;28;20046;-82
2023/03/07 03:49:12;;;;;;;8.00;1.80;;;2.60;99.90;;;;;;5009652;28;20057;-82
2023/03/07 03:51:38;;;;;;;5.50;2.38;;;2.00;99.90;;;;;;4976840;28;20046;-82
2023/03/07 03:54:04;;;;;;;6.90;1.63;;;2.10;99.90;;;;;;4990147;28;20034;-82
2023/03/07 03:56:29;;;;;;;10.63;2.85;;;2.00;99.90;;;;;;4990067;28;20173;-82
2023/03/07 03:58:56;;;;;;;5.20;1.55;;;2.00;99.90;;;;;;4992720;28;20046;-82
2023/03/07 04:01:24;;;;;;;4.53;1.80;;;2.10;99.90;;;;;;4992316;28;20243;-82
2023/03/07 04:03:52;;;;;;;7.72;2.00;;;2.00;99.90;;;;;;4989756;28;20423;-82
2023/03/07 04:06:26;;;;;;;5.30;1.65;;;2.00;99.90;;;;;;4976354;28;20052;-82
2023/03/07 04:08:53;;;;;;;5.68;2.20;;;2.00;99.90;;;;;;5007199;28;20266;-82
2023/03/07 04:11:20;;;;;;;7.30;2.15;;;2.00;99.90;;;;;;4977733;28;20064;-82
2023/03/07 04:13:46;;;;;;;11.85;2.17;;;2.20;99.90;;;;;;4975014;28;20044;-83
2023/03/07 04:16:11;;;;;;;6.55;2.03;;;2.00;99.90;;;;;;4995578;28;20042;-82
2023/03/07 04:18:38;;;;;;;11.30;2.45;;;2.50;99.90;;;;;;4991821;28;20038;-82
2023/03/07 04:21:05;;;;;;;8.55;1.90;;;2.10;99.90;;;;;;5006365;28;20053;-82
2023/03/07 04:23:31;;;;;;;6.55;1.80;;;2.10;99.90;;;;;;4994329;28;20125;-82
2023/03/07 04:25:59;;;;;;;10.55;2.70;;;2.10;99.90;;;;;;5007068;28;20061;-82
2023/03/07 04:28:48;;;;;;;9.77;1.95;;;2.10;99.90;;;;;;5007888;28;20041;-82
2023/03/07 04:31:19;;;;;;;5.15;1.83;;;2.10;99.90;;;;;;5004965;28;20049;-82
2023/03/07 04:33:45;;;;;;;5.95;1.63;;;2.00;99.90;;;;;;5023111;28;20034;-82
2023/03/07 04:36:12;;;;;;;9.55;2.08;;;2.00;99.90;;;;;;4991160;28;20038;-82
2023/03/07 04:38:39;;;;;;;8.30;2.13;;;2.00;99.90;;;;;;4990915;28;20040;-82
2023/03/07 04:41:12;;;;;;;12.10;2.38;;;2.00;99.90;;;;;;4990693;28;20120;-82
2023/03/07 04:43:38;;;;;;;5.72;1.92;;;2.00;99.90;;;;;;5006079;28;20046;-82
2023/03/07 04:46:04;;;;;;;4.15;1.58;;;2.00;99.90;;;;;;4991841;28;20567;-82
2023/03/07 04:48:30;;;;;;;4.82;1.88;;;2.00;99.90;;;;;;4970387;28;20041;-82
2023/03/07 04:50:56;;;;;;;6.00;2.00;;;2.50;99.90;;;;;;4972238;28;20050;-82
2023/03/07 04:53:22;;;;;;;7.45;2.00;;;2.00;99.90;;;;;;4988122;28;20487;-82
2023/03/07 04:55:48;;;;;;;6.90;1.75;;;1.90;99.90;;;;;;4957702;28;20050;-82
2023/03/07 04:58:14;;;;;;;8.20;1.58;;;2.80;99.90;;;;;;4987878;28;20042;-82
2023/03/07 05:00:43;;;;;;;11.48;2.05;;;1.90;99.90;;;;;;4990130;28;20065;-82
2023/03/07 05:03:10;;;;;;;5.50;1.73;;;1.90;99.90;;;;;;4971104;28;20041;-82
2023/03/07 05:05:36;;;;;;;8.55;2.20;;;1.90;99.90;;;;;;4992465;28;20042;-82
2023/03/07 05:08:03;;;;;;;10.25;2.33;;;1.90;99.90;;;;;;4987397;28;20056;-82
2023/03/07 05:10:32;;;;;;;9.85;2.25;;;1.90;99.90;;;;;;4990194;28;20054;-82
2023/03/07 05:12:58;;;;;;;5.00;1.77;;;1.90;99.90;;;;;;4973279;28;20045;-82
2023/03/07 05:15:25;;;;;;;9.07;1.92;;;1.90;99.90;;;;;;4986051;28;20036;-82
2023/03/07 05:17:51;;;;;;;10.25;1.60;;;1.90;99.90;;;;;;4988704;28;20496;-82
2023/03/07 05:20:17;;;;;;;5.20;1.98;;;2.10;99.90;;;;;;4975074;28;20045;-82
2023/03/07 05:22:43;;;;;;;12.18;3.30;;;1.90;99.90;;;;;;4978615;28;20495;-82
2023/03/07 05:25:09;;;;;;;9.40;2.03;;;1.90;99.90;;;;;;5004612;28;20096;-81
2023/03/07 05:27:35;;;;;;;16.70;4.10;;;2.00;99.90;;;;;;4990967;28;20137;-82
2023/03/07 05:30:01;;;;;;;9.48;1.70;;;2.30;99.90;;;;;;4975894;28;20052;-82
2023/03/07 05:32:26;;;;;;;6.75;1.42;;;1.90;99.90;;;;;;5005336;28;20194;-82
2023/03/07 05:34:52;;;;;;;8.60;2.05;;;2.00;99.90;;;;;;5001984;28;20117;-82
2023/03/07 05:37:18;;;;;;;8.27;2.03;;;2.00;99.90;;;;;;4985881;28;20030;-82
2023/03/07 05:39:43;;;;;;;5.80;1.80;;;2.00;99.90;;;;;;5006046;28;20187;-82
2023/03/07 05:42:09;;;;;;;12.77;1.83;;;2.10;99.90;;;;;;4991600;28;20122;-82
2023/03/07 05:44:35;;;;;;;6.55;1.92;;;2.00;99.90;;;;;;4990205;28;20398;-82
2023/03/07 05:47:01;;;;;;;6.65;1.70;;;2.00;99.90;;;;;;4976840;28;20133;-82
2023/03/07 05:49:26;;;;;;;12.20;2.80;;;2.00;99.90;;;;;;4994995;28;20461;-82
2023/03/07 05:51:52;;;;;;;8.35;1.52;;;2.00;99.90;;;;;;4960393;28;20488;-82
2023/03/07 05:54:18;;;;;;;9.13;1.77;;;2.00;99.90;;;;;;4987418;28;20034;-82
2023/03/07 05:56:43;;;;;;;13.02;1.90;;;2.00;99.90;;;;;;5010218;28;20108;-82
2023/03/07 05:59:11;;;;;;;7.35;1.98;;;2.00;99.90;;;;;;4977720;28;20122;-82
2023/03/07 06:01:37;;;;;;;8.68;2.03;;;2.00;99.90;;;;;;4994106;28;20487;-82
2023/03/07 06:04:03;;;;;;;6.03;1.60;;;2.00;99.90;;;;;;4994094;28;20041;-82
2023/03/07 06:06:29;;;;;;;5.75;1.85;;;2.00;99.90;;;;;;5006821;28;20038;-82
2023/03/07 06:08:55;;;;;;;5.45;1.67;;;2.00;99.90;;;;;;4993228;28;20061;-82
2023/03/07 06:11:20;;;;;;;6.05;1.77;;;2.00;99.90;;;;;;4980489;28;20550;-82
2023/03/07 06:13:46;;;;;;;13.65;1.73;;;2.00;99.90;;;;;;5009822;28;20137;-82
2023/03/07 06:16:11;;;;;;;15.13;2.30;;;2.10;99.90;;;;;;4992741;28;20205;-82
2023/03/07 06:18:37;;;;;;;6.38;1.30;;;2.00;99.90;;;;;;4996777;28;20113;-82
2023/03/07 06:21:05;;;;;;;5.07;1.55;;;1.30;99.90;;;;;;5010186;28;21020;-82
2023/03/07 06:23:33;;;;;;;16.98;2.55;;;2.00;99.90;;;;;;5007801;28;20050;-82
2023/03/07 06:25:59;;;;;;;5.70;1.45;;;2.00;99.90;;;;;;4991642;28;20038;-82
2023/03/07 06:28:25;;;;;;;5.82;1.55;;;2.50;99.90;;;;;;4977209;28;20049;-82
2023/03/07 06:30:52;;;;;;;7.75;2.00;;;2.00;99.90;;;;;;4978160;28;20045;-82
2023/03/07 06:33:18;;;;;;;3.67;1.50;;;2.00;99.90;;;;;;4998558;28;20121;-82
2023/03/07 06:35:44;;;;;;;11.30;2.45;;;2.00;99.90;;;;;;5008748;28;20034;-82
2023/03/07 06:38:12;;;;;;;3.17;1.70;;;2.00;99.90;;;;;;4990756;28;20084;-82
2023/03/07 06:40:38;;;;;;;6.95;1.50;;;2.00;99.90;;;;;;4994283;28;20561;-83
2023/03/07 06:43:04;;;;;;;9.00;2.15;;;2.00;99.90;;;;;;4980247;28;20034;-82
2023/03/07 06:45:30;;;;;;;8.80;2.38;;;2.50;99.90;;;;;;4980047;28;20486;-82
2023/03/07 06:47:56;;;;;;;7.97;2.03;;;2.40;99.90;;;;;;4992030;28;20076;-82
2023/03/07 06:50:22;;;;;;;4.22;1.58;;;2.00;99.90;;;;;;4987597;28;20080;-82
2023/03/07 06:52:50;;;;;;;7.85;2.28;;;2.00;99.90;;;;;;5013433;28;20037;-83
2023/03/07 06:55:17;;;;;;;10.40;1.92;;;2.30;99.90;;;;;;4961325;28;20042;-82
2023/03/07 06:57:43;;;;;;;7.10;2.13;;;2.10;99.90;;;;;;4991019;28;20061;-82
2023/03/07 07:00:10;;;;;;;7.70;1.50;;;2.10;99.90;;;;;;4972144;28;20041;-82
2023/03/07 07:02:35;;;;;;;4.32;1.20;;;2.10;99.90;;;;;;4996506;28;20091;-83
2023/03/07 07:05:02;;;;;;;8.63;1.70;;;2.20;99.90;;;;;;4991526;28;20038;-82
2023/03/07 07:07:28;;;;;;;5.70;1.50;;;2.10;99.90;;;;;;5012648;28;20032;-82
2023/03/07 07:09:53;;;;;;;11.15;1.85;;;2.10;99.90;;;;;;4993796;28;20042;-82
2023/03/07 07:12:19;;;;;;;5.95;1.88;;;2.10;99.90;;;;;;4989388;28;20053;-82
2023/03/07 07:14:46;;;;;;;6.95;1.95;;;2.10;99.90;;;;;;4992834;28;20077;-82
2023/03/07 07:17:11;;;;;;;5.75;2.15;;;2.20;99.90;;;;;;4990752;28;20072;-82
2023/03/07 07:19:37;;;;;;;10.40;3.25;;;2.20;99.90;;;;;;4993174;28;20491;-82
2023/03/07 07:22:03;;;;;;;7.38;1.98;;;2.20;99.90;;;;;;4975731;28;20045;-82
2023/03/07 07:24:29;;;;;;;8.43;1.80;;;2.00;99.90;;;;;;5013864;28;20043;-81
2023/03/07 07:26:55;;;;;;;3.85;1.27;;;2.00;99.90;;;;;;5006947;28;20141;-82
2023/03/07 07:29:21;;;;;;;6.13;1.75;;;1.80;99.90;;;;;;4972926;28;20060;-81
2023/03/07 07:31:48;;;;;;;3.85;1.67;;;1.80;99.90;;;;;;4980606;28;20041;-80
2023/03/07 07:34:14;;;;;;;6.88;1.83;;;1.80;99.90;;;;;;4991452;28;20038;-80
2023/03/07 07:36:40;;;;;;;13.40;1.90;;;1.80;99.90;;;;;;4992350;28;20414;-80
2023/03/07 07:39:07;;;;;;;9.25;2.03;;;1.80;99.90;;;;;;4989233;28;20034;-80
2023/03/07 07:41:33;;;;;;;6.93;1.33;;;1.80;99.90;;;;;;4994787;28;20046;-80
2023/03/07 07:43:59;;;;;;;10.52;1.60;;;1.90;99.90;;;;;;4973261;28;20088;-80
2023/03/07 07:46:27;;;;;;;9.38;1.65;;;1.90;99.90;;;;;;4989350;28;20276;-81
2023/03/07 07:48:53;;;;;;;8.38;1.80;;;2.10;99.90;;;;;;4990256;28;20046;-81
2023/03/07 07:51:19;;;;;;;8.25;1.92;;;1.90;99.90;;;;;;4986006;28;20040;-81
2023/03/07 07:53:45;;;;;;;17.65;2.25;;;2.00;99.90;;;;;;5011212;28;20041;-82
2023/03/07 07:56:11;;;;;;;10.13;1.73;;;2.00;99.90;;;;;;4987008;28;20050;-80
2023/03/07 07:58:37;;;;;;;6.03;2.22;;;2.00;99.90;;;;;;4973851;28;20052;-80
2023/03/07 08:01:17;;;;;;;5.35;1.70;;;2.00;99.90;;;;;;4994085;28;20045;-81
2023/03/07 08:03:43;;;;;;;5.90;1.90;;;2.00;99.90;;;;;;5007115;28;20112;-82
2023/03/07 08:06:09;;;;;;;9.40;2.80;;;2.00;99.90;;;;;;5010141;28;20538;-81
2023/03/07 08:08:35;;;;;;;11.82;2.42;;;2.00;99.90;;;;;;5008264;28;20034;-80
2023/03/07 08:11:02;;;;;;;3.45;1.95;;;2.00;99.90;;;;;;4994139;28;20033;-82
2023/03/07 08:13:28;;;;;;;6.45;2.15;;;2.10;99.90;;;;;;4990295;28;20049;-81
2023/03/07 08:15:53;;;;;;;5.72;1.88;;;2.30;99.90;;;;;;4976572;28;20523;-82
2023/03/07 08:18:19;;;;;;;6.78;1.30;;;2.50;99.90;;;;;;4989915;28;20046;-81
2023/03/07 08:20:45;;;;;;;5.35;1.45;;;2.10;99.90;;;;;;4988226;28;20025;-80
2023/03/07 08:23:11;;;;;;;4.90;2.17;;;2.20;99.90;;;;;;4990142;28;20034;-81
2023/03/07 08:25:37;;;;;;;10.30;2.15;;;2.10;99.90;;;;;;5005759;28;20038;-82
2023/03/07 08:28:04;;;;;;;5.55;1.38;;;2.20;99.90;;;;;;4991327;28;20049;-81
2023/03/07 08:30:31;;;;;;;8.27;1.75;;;2.20;99.90;;;;;;4972550;28;20069;-81
2023/03/07 08:32:58;;;;;;;8.13;1.50;;;2.20;99.90;;;;;;5001911;28;20050;-81
2023/03/07 08:35:25;;;;;;;4.88;1.73;;;2.20;99.90;;;;;;4990600;28;20114;-83
2023/03/07 08:37:55;;;;;;;6.68;1.88;;;2.20;99.90;;;;;;4974397;28;20042;-83
2023/03/07 08:40:23;;;;;;;7.35;1.98;;;2.20;99.90;;;;;;4991540;28;20055;-83
2023/03/07 08:42:49;;;;;;;7.75;2.47;;;2.30;99.90;;;;;;4987486;28;20593;-84
2023/03/07 08:45:15;;;;;;;9.02;3.08;;;2.20;99.90;;;;;;4970839;28;20041;-81
2023/03/07 08:47:41;;;;;;;8.32;1.65;;;2.20;99.90;;;;;;4972768;28;20049;-83
2023/03/07 08:50:07;;;;;;;7.18;1.85;;;2.70;99.90;;;;;;4973882;28;20045;-82
2023/03/07 08:52:33;;;;;;;8.00;1.77;;;2.20;99.90;;;;;;4973506;28;20056;-81
2023/03/07 08:54:59;;;;;;;4.43;1.90;;;2.20;99.90;;;;;;4990207;28;20038;-84
2023/03/07 08:57:24;;;;;;;6.07;2.28;;;2.20;99.90;;;;;;4970822;28;20541;-84
2023/03/07 08:59:50;;;;;;;6.93;1.63;;;2.20;99.90;;;;;;4959321;28;20042;-81
2023/03/07 09:02:16;;;;;;;6.78;1.63;;;2.20;99.90;;;;;;4975513;28;20041;-82
2023/03/07 09:04:42;;;;;;;9.02;2.15;;;2.30;99.90;;;;;;4970184;28;20049;-79
2023/03/07 09:07:08;;;;;;;3.42;1.63;;;2.20;99.90;;;;;;4990062;28;20138;-79
2023/03/07 09:09:33;;;;;;;10.90;2.53;;;2.20;99.90;;;;;;4985457;28;20557;-84
2023/03/07 09:11:59;;;;;;;5.72;1.75;;;2.20;99.90;;;;;;4953158;28;20038;-83
2023/03/07 09:14:25;;;;;;;13.50;2.15;;;2.20;99.90;;;;;;4960696;28;20092;-82
2023/03/07 09:16:51;;;;;;;7.28;2.03;;;2.70;99.90;;;;;;4980377;28;20133;-83
2023/03/07 09:19:16;;;;;;;6.40;1.85;;;2.20;99.90;;;;;;4961133;28;20053;-81
2023/03/07 09:21:42;;;;;;;4.32;1.83;;;2.20;99.90;;;;;;4978659;28;20046;-82
2023/03/07 09:24:08;;;;;;;8.23;1.95;;;2.20;99.90;;;;;;4957883;28;20104;-82
2023/03/07 09:26:33;;;;;;;10.95;2.03;;;2.20;99.90;;;;;;4978954;28;20128;-81
2023/03/07 09:28:59;;;;;;;6.10;1.98;;;2.80;99.90;;;;;;4974918;28;20041;-80
2023/03/07 09:31:25;;;;;;;6.97;1.90;;;2.40;99.90;;;;;;4972859;28;20498;-87
2023/03/07 09:33:51;;;;;;;7.68;2.83;;;2.90;99.90;;;;;;4973603;28;20042;-82
2023/03/07 09:36:18;;;;;;;6.82;2.05;;;2.50;99.90;;;;;;4956829;28;20676;-83
2023/03/07 09:38:46;;;;;;;3.38;1.85;;;2.80;99.90;;;;;;4977213;28;20095;-84
2023/03/07 09:41:30;;;;;;;7.43;2.70;;;2.60;99.90;;;;;;4992166;28;20054;-83
2023/03/07 09:44:26;;;;;;;8.80;2.35;;;2.70;99.90;;;;;;4987337;28;20137;-83
2023/03/07 09:47:13;;;;;;;3.55;1.45;;;2.80;99.90;;;;;;4984421;28;20053;-84
2023/03/07 09:49:46;;;;;;;11.60;2.28;;;2.80;99.90;;;;;;4992985;28;20514;-82
2023/03/07 09:52:15;;;;;;;11.98;2.30;;;2.90;99.90;;;;;;4977122;28;20050;-87
2023/03/07 09:55:02;;;;;;;7.18;1.80;;;2.90;99.90;;;;;;4991643;28;20120;-79
2023/03/07 09:57:48;;;;;;;8.93;2.10;;;3.10;99.90;;;;;;4987036;28;20054;-82
2023/03/07 10:00:34;;;;;;;6.90;2.35;;;3.10;99.90;;;;;;4988208;28;20587;-81
2023/03/07 10:03:21;;;;;;;5.32;1.98;;;3.20;99.90;;;;;;4990725;28;20052;-81
2023/03/07 10:05:52;;;;;;;6.97;2.15;;;3.20;99.90;;;;;;4978157;28;20066;-81
2023/03/07 10:08:28;;;;;;;7.40;2.00;;;3.30;99.90;;;;;;4978674;28;20092;-81
2023/03/07 10:11:22;;;;;;;3.50;1.85;;;3.30;99.90;;;;;;4977187;28;20041;-81
2023/03/07 10:14:09;;;;;;;5.25;2.25;;;3.30;99.90;;;;;;4972429;28;20301;-83
2023/03/07 10:16:40;;;;;;;6.13;1.65;;;3.30;99.90;;;;;;5003499;28;20046;-80
2023/03/07 10:19:12;;;;;;;4.50;1.83;;;3.40;99.90;;;;;;4973561;28;20720;-80
2023/03/07 10:21:59;;;;;;;4.22;1.33;;;3.40;99.90;;;;;;4993153;28;20068;-81
2023/03/07 10:24:49;;;;;;;2.67;0.95;;;2.90;99.90;;;;;;4992666;28;20399;-81
2023/03/07 10:27:16;;;;;;;3.22;0.90;;;2.40;99.90;;;;;;4990269;28;20042;-84
2023/03/07 10:29:46;;;;;;;5.30;1.30;;;2.00;99.90;;;;;;4992489;28;20046;-82
2023/03/07 10:32:35;;;;;;;4.20;1.13;;;1.70;99.90;;;;;;4976102;28;20041;-83
2023/03/07 10:35:10;;;;;;;1.25;0.95;;;1.60;99.90;;;;;;4976311;28;20120;-84
2023/03/07 10:37:42;;;;;;;3.70;1.08;;;1.50;99.90;;;;;;4992816;28;20045;-78
2023/03/07 10:40:24;;;;;;;3.80;1.27;;;1.30;99.90;;;;;;4990274;28;20453;-79
2023/03/07 10:42:51;;;;;;;4.25;1.08;;;1.20;99.90;;;;;;4975981;28;20411;-80
2023/03/07 10:45:16;;;;;;;2.90;1.20;;;1.20;99.90;;;;;;4975005;28;20046;-80
2023/03/07 10:47:42;;;;;;;5.47;1.52;;;1.20;99.90;;;;;;4974413;28;20048;-80
2023/03/07 10:50:30;;;;;;;4.50;1.30;;;1.20;99.90;;;;;;4989607;28;20578;-80
2023/03/07 10:53:02;;;;;;;4.55;1.35;;;1.30;99.90;;;;;;5003753;28;20045;-80
2023/03/07 10:55:38;;;;;;;4.35;1.63;;;1.40;99.90;;;;;;4974728;28;20046;-78
2023/03/07 10:58:20;;;;;;;8.90;3.13;;;1.50;99.90;;;;;;4974637;28;20772;-79
2023/03/07 11:01:09;;;;;;;5.10;2.25;;;1.80;99.90;;;;;;4976912;28;20045;-79
2023/03/07 11:03:49;;;;;;;5.13;1.40;;;2.20;99.90;;;;;;4995774;28;20060;-78
2023/03/07 11:06:33;;;;;;;3.25;1.20;;;2.30;99.90;;;;;;5011499;28;20535;-78
2023/03/07 11:09:08;;;;;;;2.88;1.65;;;2.30;99.90;;;;;;4980686;28;20041;-79
2023/03/07 11:11:36;;;;;;;5.38;1.50;;;2.50;99.90;;;;;;4992116;28;20132;-82
2023/03/07 11:14:09;;;;;;;4.82;1.10;;;2.80;99.90;;;;;;4974836;28;21113;-82
2023/03/07 11:16:47;;;;;;;4.15;1.10;;;2.70;99.90;;;;;;4976747;28;20385;-81
2023/03/07 11:19:36;;;;;;;2.30;1.23;;;3.30;99.90;;;;;;4990780;28;20065;-83
2023/03/07 11:22:22;;;;;;;3.20;1.20;;;3.00;99.90;;;;;;4990527;28;20140;-78
2023/03/07 11:25:14;;;;;;;4.85;1.17;;;3.40;99.90;;;;;;5002567;28;20061;-81
2023/03/07 11:27:52;;;;;;;5.63;2.22;;;3.00;99.90;;;;;;4977685;28;20121;-83
2023/03/07 11:30:24;;;;;;;5.68;1.50;;;3.10;99.90;;;;;;4974619;28;20042;-86
2023/03/07 11:32:50;;;;;;;4.80;1.60;;;3.30;99.90;;;;;;4996353;28;20049;-80
2023/03/07 11:35:48;;;;;;;3.38;1.25;;;3.60;99.90;;;;;;5001140;28;20045;-79
2023/03/07 11:38:32;;;;;;;3.70;1.20;;;3.70;99.90;;;;;;5004522;28;20073;-84
2023/03/07 11:41:20;;;;;;;3.33;1.35;;;3.90;99.90;;;;;;5011664;28;20037;-84
2023/03/07 11:44:24;;;;;;;7.03;1.33;;;4.20;99.90;;;;;;4992423;28;20419;-86
2023/03/07 11:46:53;;;;;;;4.78;1.17;;;4.20;99.90;;;;;;4982567;28;20133;-86
2023/03/07 11:49:42;;;;;;;2.90;1.27;;;4.30;99.90;;;;;;5010334;28;20096;-85
2023/03/07 11:52:27;;;;;;;9.30;2.33;;;4.50;99.90;;;;;;4993713;28;20099;-86
2023/03/07 11:55:32;;;;;;;3.40;1.55;;;4.60;99.90;;;;;;4993359;28;20504;-86
2023/03/07 11:58:17;;;;;;;6.35;1.95;;;4.70;99.90;;;;;;4991956;28;20700;-86
2023/03/07 12:00:58;;;;;;;6.90;1.40;;;4.80;99.90;;;;;;4992982;28;20029;-86
2023/03/07 12:03:36;;;;;;;10.77;1.85;;;5.40;99.90;;;;;;4992834;28;20092;-86
2023/03/07 12:06:34;;;;;;;1.88;1.10;;;5.10;99.90;;;;;;5008808;28;20073;-86
2023/03/07 12:09:18;;;;;;;6.15;1.55;;;5.10;99.90;;;;;;4995857;28;20548;-86
2023/03/07 12:11:58;;;;;;;3.50;1.30;;;5.00;99.90;;;;;;4995855;28;20511;-86
2023/03/07 12:14:35;;;;;;;6.10;1.30;;;4.60;99.90;;;;;;4997304;28;20041;-86
2023/03/07 12:17:16;;;;;;;3.47;1.25;;;4.40;99.90;;;;;;5008914;28;20038;-86
2023/03/07 12:20:12;;;;;;;3.00;1.23;;;3.90;99.90;;;;;;4999645;28;20113;-86
2023/03/07 12:22:51;;;;;;;2.67;1.25;;;3.30;99.90;;;;;;5008780;28;20117;-86
2023/03/07 12:25:23;;;;;;;6.15;1.35;;;3.00;99.90;;;;;;4995721;28;20056;-86
2023/03/07 12:27:58;;;;;;;;;;;2.70;99.90;;;;;;5009742;28;20056;-86
2023/03/07 12:30:52;;;;;;;1.80;1.02;;;2.60;99.90;;;;;;5009231;28;19917;-86
2023/03/07 12:33:55;;;;;;;4.10;1.02;;;2.40;99.90;;;;;;4995476;28;20116;-86
2023/03/07 12:36:43;;;;;;;3.30;0.90;;;2.30;99.90;;;;;;5023530;28;20088;-86
2023/03/07 12:39:46;;;;;;;1.48;0.70;;;2.30;99.90;;;;;;5007545;28;20157;-86
2023/03/07 12:42:25;;;;;;;2.55;0.98;;;2.20;99.90;;;;;;4986294;28;20056;-87
2023/03/07 12:45:22;;;;;;;3.72;1.30;;;2.20;99.90;;;;;;5003640;28;20097;-86
2023/03/07 12:48:00;;;;;;;9.65;1.58;;;2.20;99.90;;;;;;4997284;28;20085;-86
2023/03/07 12:50:46;;;;;;;5.82;1.48;;;2.20;99.90;;;;;;5006998;28;20037;-85
2023/03/07 12:53:45;;;;;;;5.57;1.60;;;2.20;99.90;;;;;;5003812;28;20022;-85
2023/03/07 12:56:21;;;;;;;4.97;1.52;;;2.20;99.90;;;;;;4986197;28;20074;-86
2023/03/07 12:58:59;;;;;;;6.43;1.70;;;2.20;99.90;;;;;;4988800;28;20405;-84
2023/03/07 13:01:27;;;;;;;5.15;1.55;;;2.20;99.90;;;;;;5005465;28;20045;-84
2023/03/07 13:04:17;;;;;;;7.30;1.65;;;2.30;99.90;;;;;;4979238;28;20092;-84
2023/03/07 13:06:44;;;;;;;8.15;2.05;;;2.30;99.90;;;;;;4990014;28;20046;-84
2023/03/07 13:09:27;;;;;;;9.98;1.83;;;2.30;99.90;;;;;;5002550;28;20039;-84
2023/03/07 13:12:32;;;;;;;8.43;2.20;;;2.30;99.90;;;;;;4980340;28;20045;-84
2023/03/07 13:15:15;;;;;;;5.28;2.10;;;2.40;99.90;;;;;;4977679;28;20054;-84